M I D A S
Marine Information and Data Acquisition System
Tripno 485 of the Zeeleeuw from 2003-05-06 06:51:58 to 2003-05-06 12:18:34
Back to CruiseResearch ActivitiesStationsMapUnderway DataData graphs

EquipmentUnitsComment
TimeDGPSUTC
LatitudeDGPSDM.mWGS84
LongitudeDGPSDM.mWGS84
HeadingGyrodeg 
SOGDGPSknotsSpeed over ground
COGDGPSdegCourse over ground
DepthEcho soundermeters200 kHz
Missing or incorrect values are displayed as -999
Navigation data collected by the RV Zeeleeuw from 2003-05-06 06:51:58 to 2003-05-06 12:18:34
                                                                                    Next 1000 lines
Time Latitude Longitude Heading SOG COG Depth
2003-05-06 06:52:04 51°13.6 2°56.1 128.7   64 5.5
2003-05-06 06:52:08 51°13.6 2°56.11 128.1 0.1 69 7.4
2003-05-06 06:52:14 51°13.6 2°56.11 126.9 0.1 189 7.4
2003-05-06 06:52:20 51°13.6 2°56.11 126.2   220 7.4
2003-05-06 06:52:24 51°13.6 2°56.11 125.8   176 7.4
2003-05-06 06:52:30 51°13.6 2°56.11 125.5 0.1 196 -999
2003-05-06 06:52:34 51°13.6 2°56.11 124.6   189 7.4
2003-05-06 06:52:40 51°13.6 2°56.11 124.2 0.1 193 7.4
2003-05-06 06:52:44 51°13.6 2°56.11 123.7 0.1 173 7.6
2003-05-06 06:52:50 51°13.6 2°56.11 123.2   184 7.4
2003-05-06 06:52:54 51°13.6 2°56.11 122.6   197 5.5
2003-05-06 06:53:00 51°13.6 2°56.11 122.2   186 7.3
2003-05-06 06:53:04 51°13.6 2°56.11 121.7   188 7.4
2003-05-06 06:53:10 51°13.6 2°56.11 121.1   200 7.4
2003-05-06 06:53:14 51°13.6 2°56.11 120.4   188 5.5
2003-05-06 06:53:20 51°13.6 2°56.11 119.9 0.1 188 7.4
2003-05-06 06:53:24 51°13.6 2°56.11 119.3   181 7.4
2003-05-06 06:53:30 51°13.6 2°56.11 118.7 0.1 189 7.4
2003-05-06 06:53:34 51°13.6 2°56.11 118 0.1 173 7.4
2003-05-06 06:53:40 51°13.6 2°56.1 117.5   181 5.5
2003-05-06 06:53:44 51°13.6 2°56.11 116.8 0.1 189 7.4
2003-05-06 06:53:50 51°13.6 2°56.11 116.1 0.1 166 7.4
2003-05-06 06:53:54 51°13.6 2°56.11 115.3 0.1 192 7.5
2003-05-06 06:54:00 51°13.6 2°56.11 114.6 0.1 193 7.5
2003-05-06 06:54:04 51°13.6 2°56.1 113.9 0.1 191 5.6
2003-05-06 06:54:10 51°13.6 2°56.1 113.3 0.1 197 7.4
2003-05-06 06:54:14 51°13.6 2°56.1 112.7   275 7.4
2003-05-06 06:54:20 51°13.6 2°56.1 112.4 0.1 265 7.4
2003-05-06 06:54:24 51°13.6 2°56.1 112.1 0.3 299 5.6
2003-05-06 06:54:30 51°13.6 2°56.1 111.9 0.6 289 7.5
2003-05-06 06:54:34 51°13.6 2°56.1 111.9 0.9 292 7.6
2003-05-06 06:54:40 51°13.6 2°56.1 111.9 1.3 291 7.5
2003-05-06 06:54:44 51°13.6 2°56.09 112.5 1.5 291 5.6
2003-05-06 06:54:48 51°13.6 2°56.09 112.9 1.8 292 -999
2003-05-06 06:54:56 51°13.6 2°56.09 113.6 2 293 -999
2003-05-06 06:55:00 51°13.61 2°56.08 113.9 2.2 292 -999
2003-05-06 06:55:06 51°13.61 2°56.08 114 2.4 293 -999
2003-05-06 06:55:12 51°13.61 2°56.07 114.1 2.6 291 -999
2003-05-06 06:55:18 51°13.61 2°56.06 114.2 2.8 294 -999
2003-05-06 06:55:24 51°13.61 2°56.06 114.3 3 292 -999
2003-05-06 06:55:28 51°13.61 2°56.05 114.1 3.2 290 -999
2003-05-06 06:55:34 51°13.62 2°56.04 113.7 3.3 291 -999
2003-05-06 06:55:40 51°13.62 2°56.03 113.3 3.6 289 -999
2003-05-06 06:55:44 51°13.62 2°56.03 113.2 3.7 289 -999
2003-05-06 06:55:50 51°13.62 2°56.02 113.2 3.9 289 -999
2003-05-06 06:55:54 51°13.62 2°56.01 113.7 3.9 288 -999
2003-05-06 06:56:00 51°13.62 2°56 113.9 4 290 -999
2003-05-06 06:56:04 51°13.63 2°55.99 114.4 4 289 -999
2003-05-06 06:56:10 51°13.63 2°55.98 115.1 4 290 -999
2003-05-06 06:56:14 51°13.63 2°55.98 115.8 4 291 -999
2003-05-06 06:56:20 51°13.63 2°55.97 116.7 4 291 -999
2003-05-06 06:56:24 51°13.63 2°55.96 117.2 4.1 292 -999
2003-05-06 06:56:30 51°13.64 2°55.95 117.7 4.2 293 -999
2003-05-06 06:56:34 51°13.64 2°55.94 118.3 4.2 293 9
2003-05-06 06:56:40 51°13.64 2°55.93 118.7 4.4 294 -999
2003-05-06 06:56:44 51°13.64 2°55.93 119.3 4.5 294 -999
2003-05-06 06:56:50 51°13.65 2°55.92 119.8 4.7 295 -999
2003-05-06 06:56:54 51°13.65 2°55.91 120.3 4.7 296 -999
2003-05-06 06:57:00 51°13.65 2°55.9 120.6 4.8 296 -999
2003-05-06 06:57:04 51°13.65 2°55.89 120.9 4.9 297 -999
2003-05-06 06:57:10 51°13.66 2°55.88 121 4.9 297 -999
2003-05-06 06:57:14 51°13.66 2°55.87 120.9 4.8 297 -999
2003-05-06 06:57:20 51°13.66 2°55.86 120.5 4.7 297 -999
2003-05-06 06:57:24 51°13.67 2°55.85 120 4.6 297 -999
2003-05-06 06:57:30 51°13.67 2°55.84 119.5 4.4 296 -999
2003-05-06 06:57:34 51°13.67 2°55.83 118.8 4.3 295 -999
2003-05-06 06:57:40 51°13.67 2°55.82 118.1 4.1 294 -999
2003-05-06 06:57:44 51°13.68 2°55.82 117.2 3.9 294 -999
2003-05-06 06:57:50 51°13.68 2°55.81 116.1 3.7 292 -999
2003-05-06 06:57:54 51°13.68 2°55.8 115.2 3.6 292 -999
2003-05-06 06:58:00 51°13.68 2°55.79 114.6 3.3 290 -999
2003-05-06 06:58:04 51°13.68 2°55.79 113.9 3.2 291 -999
2003-05-06 06:58:10 51°13.69 2°55.78 113.6 2.6 290 10.3
2003-05-06 06:58:14 51°13.69 2°55.78 112.9 2.2 288 11
2003-05-06 06:58:18 51°13.69 2°55.77 111.8 1.5 290 11.1
2003-05-06 06:58:24 51°13.69 2°55.77 110.4 1 292 11.1
2003-05-06 06:58:28 51°13.69 2°55.77 108 0.5 302 11.1
2003-05-06 06:58:32 51°13.69 2°55.77 104.6 0.2 351 11.1
2003-05-06 06:58:36 51°13.69 2°55.77 100.6 0.6 67 11.1
2003-05-06 06:58:42 51°13.69 2°55.77 95.5 0.9 72 11
2003-05-06 06:58:46 51°13.69 2°55.77 89.5 1.2 71 11.1
2003-05-06 06:58:50 51°13.69 2°55.78 83.2 1.5 66 11
2003-05-06 06:58:56 51°13.69 2°55.78 77 1.7 67 11
2003-05-06 06:59:00 51°13.69 2°55.78 71.1 1.6 59 10.9
2003-05-06 06:59:04 51°13.69 2°55.79 66.4 1.5 58 10.9
2003-05-06 06:59:10 51°13.69 2°55.79 63.2 1.3 49 10.8
2003-05-06 06:59:14 51°13.69 2°55.79 60.3 0.9 54 10.6
2003-05-06 06:59:20 51°13.69 2°55.79 57.3 0.4 27 10.6
2003-05-06 06:59:24 51°13.7 2°55.79 54.9   315 10.6
2003-05-06 06:59:28 51°13.69 2°55.79 53 0.5 247 10.6
2003-05-06 06:59:34 51°13.69 2°55.79 51.8 0.8 231 10.7
2003-05-06 06:59:40 51°13.69 2°55.79 50.9 1.3 233 10.9
2003-05-06 06:59:44 51°13.69 2°55.79 50.1 1.3 230 5.5
2003-05-06 06:59:50 51°13.69 2°55.78 49.3 1.5 229 -999
2003-05-06 06:59:56 51°13.69 2°55.78 48.1 1.7 229 -999
2003-05-06 07:00:02 51°13.69 2°55.78 47.2 1.6 226 -999
2003-05-06 07:00:06 51°13.69 2°55.77 46.5 1.5 229 -999
2003-05-06 07:00:12 51°13.68 2°55.77 45.9 1.4 224 -999
2003-05-06 07:00:18 51°13.68 2°55.77 44.9 0.9 230 -999
2003-05-06 07:00:24 51°13.68 2°55.77 42.7 0.4 244 -999
2003-05-06 07:00:30 51°13.68 2°55.77 39.3 0.2 334 -999
2003-05-06 07:00:34 51°13.68 2°55.77 35.3 0.4 7 -999
2003-05-06 07:00:40 51°13.68 2°55.77 30.7 0.8 13 11.1
2003-05-06 07:00:44 51°13.69 2°55.77 27 1.1 12 11.1
2003-05-06 07:00:50 51°13.69 2°55.77 21.7 1.5 8 11.1
2003-05-06 07:00:54 51°13.69 2°55.77 15.9 1.7 5 5.3
2003-05-06 07:01:00 51°13.69 2°55.77 8.9 2 358 5.3
2003-05-06 07:01:04 51°13.7 2°55.77 3.2 2.2 354 11.1
2003-05-06 07:01:10 51°13.7 2°55.77 357 2.4 345 -999
2003-05-06 07:01:14 51°13.7 2°55.76 350.6 2.6 341 -999
2003-05-06 07:01:20 51°13.71 2°55.76 343.9 2.7 333 -999
2003-05-06 07:01:24 51°13.71 2°55.76 337.5 2.6 328 11.2
2003-05-06 07:01:28 51°13.71 2°55.76 334 2.5 325 11.3
2003-05-06 07:01:34 51°13.71 2°55.75 329.6 2.4 321 11.1
2003-05-06 07:01:38 51°13.72 2°55.75 326.7 2.4 321 11
2003-05-06 07:01:42 51°13.72 2°55.75 324.9 2.3 321 11.1
2003-05-06 07:01:48 51°13.72 2°55.74 323.8 2.3 318 10.9
2003-05-06 07:01:52 51°13.72 2°55.74 323.5 2.3 319 10.4
2003-05-06 07:01:56 51°13.72 2°55.74 323.6 2.2 317 9.9
2003-05-06 07:02:00 51°13.73 2°55.74 324.4 2.2 318 9.7
2003-05-06 07:02:06 51°13.73 2°55.73 325.5 2.1 318 9.6
2003-05-06 07:02:10 51°13.73 2°55.73 326.9 2.1 320 9.5
2003-05-06 07:02:14 51°13.73 2°55.73 327.7 2.2 318 9.5
2003-05-06 07:02:20 51°13.74 2°55.72 328.1 2.2 320 9.5
2003-05-06 07:02:24 51°13.74 2°55.72 328.5 2.2 319 9.4
2003-05-06 07:02:30 51°13.74 2°55.72 329.1 2.3 320 9.4
2003-05-06 07:02:34 51°13.74 2°55.71 329.9 2.3 318 9.5
2003-05-06 07:02:40 51°13.74 2°55.71 330.8 2.4 323 9.5
2003-05-06 07:02:44 51°13.75 2°55.71 331.4 2.5 320 9.5
2003-05-06 07:02:50 51°13.75 2°55.7 332.1 2.9 324 9.4
2003-05-06 07:02:54 51°13.75 2°55.7 333 3.2 323 9.4
2003-05-06 07:03:00 51°13.76 2°55.69 334.2 3.7 327 9.4
2003-05-06 07:03:04 51°13.76 2°55.69 335.3 4 328 9.4
2003-05-06 07:03:10 51°13.77 2°55.68 336.2 4.5 328 9.7
2003-05-06 07:03:14 51°13.77 2°55.68 337.2 4.7 331 9.7
2003-05-06 07:03:20 51°13.78 2°55.67 337.6 5.1 330 9.7
2003-05-06 07:03:24 51°13.79 2°55.67 338.3 5.4 332 9.8
2003-05-06 07:03:30 51°13.79 2°55.66 338.4 5.7 332 9.8
2003-05-06 07:03:34 51°13.8 2°55.66 338.4 5.9 334 9.7
2003-05-06 07:03:40 51°13.81 2°55.65 338.8 6.2 333 9.7
2003-05-06 07:03:44 51°13.82 2°55.65 339.6 6.4 335 9.8
2003-05-06 07:03:50 51°13.83 2°55.64 340.5 6.6 335 9.7
2003-05-06 07:03:54 51°13.83 2°55.63 341.1 6.7 337 9.6
2003-05-06 07:04:00 51°13.84 2°55.63 340.7 6.8 335 9.6
2003-05-06 07:04:04 51°13.85 2°55.62 340.4 6.9 336 9.4
2003-05-06 07:04:10 51°13.86 2°55.61 340.7 7.1 335 9.6
2003-05-06 07:04:14 51°13.87 2°55.61 340.8 7.1 337 9.4
2003-05-06 07:04:20 51°13.88 2°55.6 340.4 7.3 334 9.6
2003-05-06 07:04:24 51°13.89 2°55.59 340.3 7.3 336 9.6
2003-05-06 07:04:30 51°13.9 2°55.59 340.4 7.4 335 -999
2003-05-06 07:04:36 51°13.91 2°55.58 339.7 7.5 334 9.8
2003-05-06 07:04:40 51°13.92 2°55.57 339 7.6 335 9.9
2003-05-06 07:04:44 51°13.92 2°55.57 339.1 7.6 335 9.8
2003-05-06 07:04:50 51°13.93 2°55.56 339.8 7.7 336 9.7
2003-05-06 07:04:54 51°13.94 2°55.55 340.1 7.7 335 9.6
2003-05-06 07:05:00 51°13.95 2°55.54 339.8 7.7 336 9.7
2003-05-06 07:05:04 51°13.96 2°55.54 339.5 7.8 334 9.7
2003-05-06 07:05:10 51°13.97 2°55.53 339.5 7.8 336 9.7
2003-05-06 07:05:14 51°13.98 2°55.52 339.8 7.8 334 9.6
2003-05-06 07:05:20 51°13.99 2°55.51 339.9 7.8 335 9.6
2003-05-06 07:05:24 51°14 2°55.51 339.5 7.8 333 9.6
2003-05-06 07:05:30 51°14.01 2°55.5 338.9 7.8 334 9.7
2003-05-06 07:05:34 51°14.02 2°55.49 338.7 7.8 333 9.7
2003-05-06 07:05:40 51°14.03 2°55.48 338.8 7.9 334 9.7
2003-05-06 07:05:44 51°14.04 2°55.48 339.1 7.9 334 9.6
2003-05-06 07:05:48 51°14.05 2°55.47 340.1 7.9 335 9.6
2003-05-06 07:05:54 51°14.06 2°55.46 340.5 7.9 335 9.4
2003-05-06 07:06:00 51°14.07 2°55.45 340.5 7.9 335 9.5
2003-05-06 07:06:04 51°14.08 2°55.45 340.4 7.9 335 9.6
2003-05-06 07:06:10 51°14.09 2°55.44 340.1 7.9 335 9.5
2003-05-06 07:06:14 51°14.1 2°55.43 339.4 8 334 9.6
2003-05-06 07:06:20 51°14.11 2°55.42 339.2 8 334 9.5
2003-05-06 07:06:24 51°14.12 2°55.42 339.2 8 333 9.5
2003-05-06 07:06:30 51°14.13 2°55.41 338.7 8 333 9.6
2003-05-06 07:06:34 51°14.14 2°55.4 337.9 8 332 9.6
2003-05-06 07:06:40 51°14.15 2°55.39 336.7 8 331 9.5
2003-05-06 07:06:44 51°14.16 2°55.38 335.5 8 329 9.6
2003-05-06 07:06:50 51°14.17 2°55.37 335.3 8 330 9.5
2003-05-06 07:06:54 51°14.18 2°55.36 335 8.1 328 -999
2003-05-06 07:07:00 51°14.19 2°55.35 333.8 8 328 9.5
2003-05-06 07:07:04 51°14.2 2°55.35 332.4 8.1 326 9.4
2003-05-06 07:07:10 51°14.21 2°55.33 331.6 8.2 326 9.5
2003-05-06 07:07:16 51°14.22 2°55.32 329.9 8.4 324 9.5
2003-05-06 07:07:20 51°14.23 2°55.31 327.4 8.5 322 9.4
2003-05-06 07:07:24 51°14.24 2°55.3 326.2 8.7 321 -999
2003-05-06 07:07:30 51°14.25 2°55.29 324.7 8.7 319 9.5
2003-05-06 07:07:34 51°14.25 2°55.28 323.6 8.8 318 9.6
2003-05-06 07:07:40 51°14.26 2°55.26 322.5 8.9 317 9.8
2003-05-06 07:07:44 51°14.27 2°55.25 320.3 9 315 -999
2003-05-06 07:07:50 51°14.28 2°55.23 318.9 9.1 313 9.7
2003-05-06 07:07:54 51°14.29 2°55.22 317.7 9.1 312 9.7
2003-05-06 07:08:00 51°14.3 2°55.2 317.1 9.1 311 9.7
2003-05-06 07:08:04 51°14.31 2°55.19 316.4 9.1 311 9.7
2003-05-06 07:08:10 51°14.32 2°55.17 316 9.2 310 9.7
2003-05-06 07:08:14 51°14.32 2°55.16 315.6 9.2 310 9.9
2003-05-06 07:08:20 51°14.33 2°55.14 315.4 9.2 309 9.8
2003-05-06 07:08:24 51°14.34 2°55.13 315.3 9.2 309 9.2
2003-05-06 07:08:30 51°14.35 2°55.11 314.3 9.3 308 9.8
2003-05-06 07:08:34 51°14.35 2°55.09 313 9.3 307 10
2003-05-06 07:08:40 51°14.36 2°55.07 312.5 9.3 306 10.4
2003-05-06 07:08:44 51°14.37 2°55.06 311.9 9.3 305 10.3
2003-05-06 07:08:50 51°14.38 2°55.04 311.3 9.3 304 10.3
2003-05-06 07:08:54 51°14.38 2°55.03 310.5 9.3 303 10.2
2003-05-06 07:09:00 51°14.39 2°55 309.1 9.4 301 10.2
2003-05-06 07:09:04 51°14.4 2°54.99 307.6 9.5 297 10.4
2003-05-06 07:09:10 51°14.4 2°54.97 304.9 9.5 295 10.3
2003-05-06 07:09:14 51°14.41 2°54.95 300.5 9.5 290 10.2
2003-05-06 07:09:20 51°14.41 2°54.93 297.8 9.7 287 10.4
2003-05-06 07:09:24 51°14.41 2°54.91 296 9.6 286 10.5
2003-05-06 07:09:30 51°14.42 2°54.89 295.2 9.8 285 10.4
2003-05-06 07:09:34 51°14.42 2°54.87 295.2 9.8 285 10.6
2003-05-06 07:09:40 51°14.43 2°54.85 294.9 9.4 284 10.4
2003-05-06 07:09:44 51°14.43 2°54.83 294.4 9.1 284 10.4
2003-05-06 07:09:50 51°14.43 2°54.81 294 8.6 283 10.5
2003-05-06 07:09:54 51°14.43 2°54.79 293.7 8.3 282 10.1
2003-05-06 07:10:00 51°14.44 2°54.77 293.3 7.8 283 10.4
2003-05-06 07:10:04 51°14.44 2°54.76 293.1 7.6 281 10.2
2003-05-06 07:10:10 51°14.44 2°54.74 293 7.2 281 10.3
2003-05-06 07:10:14 51°14.44 2°54.73 292.7 7 281 10.1
2003-05-06 07:10:20 51°14.44 2°54.71 292.5 6.5 280 10.4
2003-05-06 07:10:24 51°14.44 2°54.7 292.5 6.3 280 10.4
2003-05-06 07:10:28 51°14.45 2°54.69 291 5.8 277 10.4
2003-05-06 07:10:34 51°14.45 2°54.67 288.6 5.6 276 10.3
2003-05-06 07:10:40 51°14.45 2°54.66 285.2 5.2 272 10.4
2003-05-06 07:10:44 51°14.45 2°54.65 281.7 5.1 270 10.1
2003-05-06 07:10:50 51°14.45 2°54.64 277.9 4.8 264 10.3
2003-05-06 07:10:54 51°14.45 2°54.63 274.3 4.7 264 10.2
2003-05-06 07:11:00 51°14.44 2°54.62 271.1 4.5 259 10.4
2003-05-06 07:11:04 51°14.44 2°54.61 268.5 4.4 259 10.3
2003-05-06 07:11:10 51°14.44 2°54.6 266.3 4.7 255 10.2
2003-05-06 07:11:14 51°14.44 2°54.59 264.3 5.1 256 10.4
2003-05-06 07:11:20 51°14.44 2°54.58 262.7 5.9 255 10.5
2003-05-06 07:11:24 51°14.44 2°54.56 261.7 6.5 253 10.4
2003-05-06 07:11:30 51°14.43 2°54.55 260.6 7.4 253 10.2
2003-05-06 07:11:34 51°14.43 2°54.53 259.4 8 253 10.4
2003-05-06 07:11:40 51°14.42 2°54.51 257.8 8.7 252 10.3
2003-05-06 07:11:44 51°14.42 2°54.5 256.3 9.2 249 10.3
2003-05-06 07:11:50 51°14.42 2°54.47 254.7 9.8 248 10.1
2003-05-06 07:11:54 51°14.41 2°54.46 253.1 10.2 247 9.8
2003-05-06 07:12:00 51°14.4 2°54.43 251.7 10.6 246 9.3
2003-05-06 07:12:04 51°14.4 2°54.41 250 10.8 246 9.2
2003-05-06 07:12:10 51°14.39 2°54.39 250 11.2 246 9.1
2003-05-06 07:12:14 51°14.39 2°54.37 251.6 11.4 247 9.1
2003-05-06 07:12:20 51°14.38 2°54.34 251.6 11.8 246 9.1
2003-05-06 07:12:24 51°14.37 2°54.32 250.1 12 245 9.1
2003-05-06 07:12:30 51°14.36 2°54.29 248.7 12.3 243 9
2003-05-06 07:12:34 51°14.36 2°54.27 247.9 12.4 244 8.9
2003-05-06 07:12:40 51°14.35 2°54.24 247.4 12.6 243 8.9
2003-05-06 07:12:44 51°14.34 2°54.22 246.8 12.5 243 8.8
2003-05-06 07:12:50 51°14.33 2°54.19 246.4 11.6 243 8.8
2003-05-06 07:12:54 51°14.33 2°54.18 246.4 11.3 242 8.8
2003-05-06 07:13:00 51°14.32 2°54.15 246.3 10.5 243 8.9
2003-05-06 07:13:04 51°14.31 2°54.13 246.3 9.9 241 8.9
2003-05-06 07:13:10 51°14.31 2°54.11 246.5 9.3 244 9
2003-05-06 07:13:14 51°14.3 2°54.1 247.7 8.6 243 9
2003-05-06 07:13:20 51°14.3 2°54.08 249.3 7.8 246 9
2003-05-06 07:13:24 51°14.29 2°54.07 248.6 7.5 243 9
2003-05-06 07:13:28 51°14.29 2°54.06 247.9 7.2 245 9
2003-05-06 07:13:34 51°14.28 2°54.04 247.9 7.1 242 9
2003-05-06 07:13:40 51°14.28 2°54.02 247.9 6.8 245 9
2003-05-06 07:13:44 51°14.27 2°54.01 248.1 6.6 242 9
2003-05-06 07:13:50 51°14.27 2°54 248.2 6.6 245 9
2003-05-06 07:13:54 51°14.27 2°53.99 248.6 6.4 242 9
2003-05-06 07:14:00 51°14.26 2°53.97 248.8 6.2 245 9
2003-05-06 07:14:04 51°14.26 2°53.96 249 6 242 9
2003-05-06 07:14:10 51°14.26 2°53.95 249.4 5.4 246 9
2003-05-06 07:14:14 51°14.25 2°53.94 250.1 4.9 242 9
2003-05-06 07:14:20 51°14.25 2°53.93 251.1 4.3 245 9
2003-05-06 07:14:24 51°14.25 2°53.93 252.6 3.9 242 9
2003-05-06 07:14:30 51°14.25 2°53.92 253.8 3.4 245 9
2003-05-06 07:14:34 51°14.24 2°53.91 254 3.1 241 9
2003-05-06 07:14:40 51°14.24 2°53.91 254 3 246 9.1
2003-05-06 07:14:44 51°14.24 2°53.9 253.9 3 241 9
2003-05-06 07:14:50 51°14.24 2°53.89 253.8 3 244 9.1
2003-05-06 07:14:54 51°14.24 2°53.89 253.8 3 241 9.1
2003-05-06 07:15:00 51°14.23 2°53.88 254 3 242 9.1
2003-05-06 07:15:04 51°14.23 2°53.88 254.2 3 246 9.1
2003-05-06 07:15:10 51°14.23 2°53.87 254.5 3 243 9.1
2003-05-06 07:15:14 51°14.23 2°53.87 254.7 3 242 9
2003-05-06 07:15:20 51°14.23 2°53.86 255.2 3 241 9.1
2003-05-06 07:15:24 51°14.23 2°53.85 255.4 2.9 246 9.1
2003-05-06 07:15:30 51°14.22 2°53.85 255.9 3 246 9.1
2003-05-06 07:15:34 51°14.22 2°53.84 256.2 3 247 9.1
2003-05-06 07:15:40 51°14.22 2°53.83 256.5 3 244 9.1
2003-05-06 07:15:44 51°14.22 2°53.83 257 3.1 245 9.1
2003-05-06 07:15:50 51°14.22 2°53.82 257.3 3 244 9.1
2003-05-06 07:15:54 51°14.22 2°53.82 257.6 3 249 9.1
2003-05-06 07:16:00 51°14.21 2°53.81 257.7 3 246 9.1
2003-05-06 07:16:04 51°14.21 2°53.81 258 3 246 9.1
2003-05-06 07:16:10 51°14.21 2°53.8 258.2 3 247 9.1
2003-05-06 07:16:14 51°14.21 2°53.79 258.3 3 246 9.1
2003-05-06 07:16:20 51°14.21 2°53.79 258.5 3 249 9.1
2003-05-06 07:16:24 51°14.21 2°53.78 258.7 3 245 9.1
2003-05-06 07:16:30 51°14.2 2°53.77 258.8 2.9 246 9.1
2003-05-06 07:16:34 51°14.2 2°53.77 259.1 2.9 248 9.1
2003-05-06 07:16:40 51°14.2 2°53.76 259.2 3 249 9.1
2003-05-06 07:16:44 51°14.2 2°53.76 259.3 3 244 9.1
2003-05-06 07:16:50 51°14.2 2°53.75 259.5 3 244 9.1
2003-05-06 07:16:54 51°14.2 2°53.75 259.6 3 248 9.2
2003-05-06 07:17:00 51°14.19 2°53.74 259.7 3 249 9.1
2003-05-06 07:17:04 51°14.19 2°53.73 259.7 3 246 9.1
2003-05-06 07:17:10 51°14.19 2°53.73 259.6 3 246 9.2
2003-05-06 07:17:14 51°14.19 2°53.72 259.6 3 246 9.1
2003-05-06 07:17:20 51°14.19 2°53.71 259.4 3 245 9.2
2003-05-06 07:17:24 51°14.19 2°53.71 259.3 3 249 9.2
2003-05-06 07:17:30 51°14.18 2°53.7 259.2 2.9 247 9.2
2003-05-06 07:17:34 51°14.18 2°53.7 259.1 2.9 248 9.2
2003-05-06 07:17:40 51°14.18 2°53.69 258.9 3 246 9.1
2003-05-06 07:17:44 51°14.18 2°53.68 258.8 3 245 9.2
2003-05-06 07:17:50 51°14.18 2°53.68 258.7 3 246 9.2
2003-05-06 07:17:54 51°14.18 2°53.67 258.7 2.9 246 9.2
2003-05-06 07:18:00 51°14.17 2°53.67 258.7 3 246 9.2
2003-05-06 07:18:04 51°14.17 2°53.66 258.8 3 248 9.2
2003-05-06 07:18:10 51°14.17 2°53.65 258.9 3 247 9.2
2003-05-06 07:18:14 51°14.17 2°53.65 259.1 3 247 9.2
2003-05-06 07:18:20 51°14.17 2°53.64 259.2 3 248 9.2
2003-05-06 07:18:24 51°14.17 2°53.64 259.2 3.1 248 9.3
2003-05-06 07:18:30 51°14.16 2°53.63 259.2 2.9 249 9.2
2003-05-06 07:18:34 51°14.16 2°53.63 259.3 2.9 245 9.3
2003-05-06 07:18:40 51°14.16 2°53.62 259.3 3 247 9.2
2003-05-06 07:18:44 51°14.16 2°53.61 259.4 3 247 9.3
2003-05-06 07:18:50 51°14.16 2°53.61 259.3 3 245 9.2
2003-05-06 07:18:54 51°14.16 2°53.6 259.1 3 249 9.3
2003-05-06 07:19:00 51°14.16 2°53.59 259 3 246 9.3
2003-05-06 07:19:04 51°14.15 2°53.59 258.9 3 246 9.3
2003-05-06 07:19:08 51°14.15 2°53.58 258.7 3 247 9.3
2003-05-06 07:19:14 51°14.15 2°53.58 258.5 3.4 248 9.3
2003-05-06 07:19:20 51°14.15 2°53.57 257.8 4.1 248 9.3
2003-05-06 07:19:24 51°14.15 2°53.56 256.5 4.7 248 9.3
2003-05-06 07:19:30 51°14.14 2°53.54 254.2 5.8 247 9.2
2003-05-06 07:19:34 51°14.14 2°53.53 251.1 6.4 245 9.3
2003-05-06 07:19:40 51°14.13 2°53.52 248 7.5 242 9.2
2003-05-06 07:19:44 51°14.13 2°53.5 244.5 7.8 240 9.3
2003-05-06 07:19:48 51°14.12 2°53.49 241 8.5 236 9.3
2003-05-06 07:19:54 51°14.12 2°53.47 237.4 8.9 235 9.2
2003-05-06 07:20:00 51°14.11 2°53.45 234.1 9.4 230 9.3
2003-05-06 07:20:04 51°14.1 2°53.44 231.5 9.7 230 9.2
2003-05-06 07:20:10 51°14.09 2°53.42 229.3 10 227 9.2
2003-05-06 07:20:14 51°14.08 2°53.41 227.6 10.3 226 9.2
2003-05-06 07:20:20 51°14.07 2°53.39 226.9 10.6 226 9.2
2003-05-06 07:20:24 51°14.06 2°53.38 227.5 10.7 225 9.2
2003-05-06 07:20:30 51°14.05 2°53.35 231.8 11 232 9.2
2003-05-06 07:20:34 51°14.04 2°53.34 236.4 11.1 233 9.2
2003-05-06 07:20:40 51°14.03 2°53.31 240.2 11.3 238 9.2
2003-05-06 07:20:44 51°14.02 2°53.3 241 11.4 237 9.3
2003-05-06 07:20:50 51°14.01 2°53.27 240.5 11.5 236 9.3
2003-05-06 07:20:54 51°14.01 2°53.25 240.3 11.5 237 9.3
2003-05-06 07:21:00 51°13.99 2°53.23 240.6 11.8 235 9.3
2003-05-06 07:21:04 51°13.99 2°53.21 241.7 12 239 9.3
2003-05-06 07:21:10 51°13.98 2°53.18 240.9 12.1 236 9.4
2003-05-06 07:21:14 51°13.97 2°53.16 240.3 12.2 237 9.4
2003-05-06 07:21:20 51°13.96 2°53.14 240.7 12.4 237 9.4
2003-05-06 07:21:24 51°13.95 2°53.12 241.3 12.5 238 9.4
2003-05-06 07:21:30 51°13.94 2°53.09 242.2 12.6 239 9.4
2003-05-06 07:21:34 51°13.93 2°53.07 242.8 12.8 239 9.4
2003-05-06 07:21:40 51°13.92 2°53.04 243.2 12.8 239 9.4
2003-05-06 07:21:44 51°13.91 2°53.02 243.2 12.9 239 9.5
2003-05-06 07:21:50 51°13.9 2°52.99 243.4 13 240 9.5
2003-05-06 07:21:54 51°13.9 2°52.97 243.1 13 239 9.5
2003-05-06 07:22:00 51°13.88 2°52.94 243.1 13.1 240 9.6
2003-05-06 07:22:04 51°13.88 2°52.92 243 13.1 238 9.6
2003-05-06 07:22:10 51°13.87 2°52.89 242.7 13.1 239 9.5
2003-05-06 07:22:14 51°13.86 2°52.87 242.7 13.2 238 9.6
2003-05-06 07:22:20 51°13.85 2°52.84 242.9 13.1 239 9.6
2003-05-06 07:22:24 51°13.84 2°52.82 242.9 13.2 238 9.6
2003-05-06 07:22:30 51°13.83 2°52.79 242.9 13.1 239 9.6
2003-05-06 07:22:34 51°13.82 2°52.77 242.4 13.2 237 9.7
2003-05-06 07:22:40 51°13.81 2°52.74 242.5 13.2 239 9.6
2003-05-06 07:22:44 51°13.8 2°52.72 242.4 13.2 237 9.7
2003-05-06 07:22:50 51°13.79 2°52.69 242.2 13.1 238 9.7
2003-05-06 07:22:54 51°13.78 2°52.67 242.4 13.2 238 9.7
2003-05-06 07:23:00 51°13.77 2°52.64 243 13.2 239 9.6
2003-05-06 07:23:04 51°13.76 2°52.62 243.1 13.2 239 9.6
2003-05-06 07:23:10 51°13.75 2°52.59 243.4 13.2 239 9.7
2003-05-06 07:23:14 51°13.74 2°52.57 243.4 13.2 240 9.6
2003-05-06 07:23:20 51°13.73 2°52.54 243.4 13.1 239 9.7
2003-05-06 07:23:24 51°13.72 2°52.52 243.1 13.1 239 9.6
2003-05-06 07:23:30 51°13.71 2°52.49 243.1 13.2 238 9.7
2003-05-06 07:23:34 51°13.71 2°52.47 243 13.1 239 9.7
2003-05-06 07:23:40 51°13.69 2°52.45 242.6 13.2 238 9.8
2003-05-06 07:23:44 51°13.69 2°52.43 242.6 13.1 239 9.8
2003-05-06 07:23:48 51°13.68 2°52.41 242.4 13.2 238 9.9
2003-05-06 07:23:54 51°13.67 2°52.38 243 13.2 240 9.9
2003-05-06 07:24:00 51°13.66 2°52.35 243 13.1 239 9.9
2003-05-06 07:24:04 51°13.65 2°52.33 243.3 13.2 240 9.9
2003-05-06 07:24:10 51°13.64 2°52.3 243.6 13.2 239 10
2003-05-06 07:24:14 51°13.63 2°52.28 243.8 13.2 239 9.9
2003-05-06 07:24:20 51°13.62 2°52.25 244.1 13.3 240 9.9
2003-05-06 07:24:24 51°13.61 2°52.22 244.2 13.3 240 9.9
2003-05-06 07:24:28 51°13.6 2°52.2 244.4 13.2 241 9.9
2003-05-06 07:24:34 51°13.59 2°52.17 244.7 13.2 240 10
2003-05-06 07:24:40 51°13.58 2°52.14 244.8 13.2 241 9.9
2003-05-06 07:24:44 51°13.58 2°52.12 244.6 13.2 240 9.9
2003-05-06 07:24:50 51°13.57 2°52.09 244.4 13.2 240 9.9
2003-05-06 07:24:54 51°13.56 2°52.07 244.2 13.2 240 9.9
2003-05-06 07:25:00 51°13.55 2°52.04 244 13.3 240 9.9
2003-05-06 07:25:04 51°13.54 2°52.02 243.8 13.2 239 10
2003-05-06 07:25:08 51°13.53 2°52 243.5 13.3 240 10
2003-05-06 07:25:14 51°13.52 2°51.97 243.3 13.3 239 10
2003-05-06 07:25:20 51°13.51 2°51.94 243.8 13.3 240 10
2003-05-06 07:25:24 51°13.5 2°51.92 244.2 13.3 240 10.1
2003-05-06 07:25:30 51°13.49 2°51.89 244.5 13.3 241 10
2003-05-06 07:25:34 51°13.48 2°51.87 244.6 13.3 240 10
2003-05-06 07:25:40 51°13.47 2°51.84 245 13.3 242 10
2003-05-06 07:25:44 51°13.47 2°51.82 244.9 13.3 240 10
2003-05-06 07:25:50 51°13.46 2°51.79 245.1 13.3 241 10
2003-05-06 07:25:54 51°13.45 2°51.77 245.1 13.3 241 10.1
2003-05-06 07:26:00 51°13.44 2°51.74 245.1 13.3 241 10
2003-05-06 07:26:04 51°13.43 2°51.72 244.7 13.3 240 10.1
2003-05-06 07:26:10 51°13.42 2°51.69 244.5 13.3 240 10
2003-05-06 07:26:14 51°13.41 2°51.67 244 13.3 240 10
2003-05-06 07:26:20 51°13.4 2°51.63 243.8 13.3 239 10
2003-05-06 07:26:24 51°13.39 2°51.61 244.2 13.4 241 10
2003-05-06 07:26:30 51°13.38 2°51.58 244.3 13.5 240 9.9
2003-05-06 07:26:34 51°13.37 2°51.56 244.5 13.5 240 9.9
2003-05-06 07:26:40 51°13.36 2°51.53 244.5 13.6 240 10
2003-05-06 07:26:44 51°13.36 2°51.51 244.5 13.6 241 9.9
2003-05-06 07:26:50 51°13.34 2°51.48 244.5 13.8 240 9.9
2003-05-06 07:26:54 51°13.34 2°51.46 244.5 13.7 240 9.9
2003-05-06 07:27:00 51°13.33 2°51.43 244.1 13.8 239 10
2003-05-06 07:27:04 51°13.32 2°51.41 243.7 13.7 241 10
2003-05-06 07:27:10 51°13.31 2°51.37 243.5 13.9 239 9.9
2003-05-06 07:27:14 51°13.3 2°51.35 243.8 13.8 241 9.9
2003-05-06 07:27:20 51°13.29 2°51.32 243.5 13.9 239 9.9
2003-05-06 07:27:24 51°13.28 2°51.3 243.8 13.9 241 10
2003-05-06 07:27:30 51°13.27 2°51.27 244.1 13.9 240 10
2003-05-06 07:27:34 51°13.26 2°51.25 244.4 13.9 241 9.9
2003-05-06 07:27:40 51°13.25 2°51.21 244.2 13.9 240 10
2003-05-06 07:27:44 51°13.24 2°51.19 243.9 13.9 240 10
2003-05-06 07:27:50 51°13.23 2°51.16 243.5 13.9 240 10
2003-05-06 07:27:54 51°13.22 2°51.14 243.6 13.9 240 10.1
2003-05-06 07:28:00 51°13.21 2°51.11 243.8 14 239 10
2003-05-06 07:28:04 51°13.2 2°51.09 243.7 14.2 239 10
2003-05-06 07:28:10 51°13.19 2°51.05 243.9 14.2 240 10.1
2003-05-06 07:28:14 51°13.18 2°51.03 244 14.3 240 10
2003-05-06 07:28:20 51°13.17 2°51 244.4 14.3 241 10.1
2003-05-06 07:28:24 51°13.16 2°50.98 244.1 14.4 240 10
2003-05-06 07:28:30 51°13.15 2°50.94 244.1 14.4 240 10
2003-05-06 07:28:34 51°13.14 2°50.92 243.6 14.4 240 10
2003-05-06 07:28:40 51°13.13 2°50.89 243.8 14.5 241 10
2003-05-06 07:28:44 51°13.12 2°50.87 243.6 14.5 238 10
2003-05-06 07:28:50 51°13.11 2°50.83 244 14.6 241 10
2003-05-06 07:28:54 51°13.1 2°50.81 244.1 14.5 239 10
2003-05-06 07:29:00 51°13.09 2°50.78 244.2 14.5 240 10
2003-05-06 07:29:04 51°13.08 2°50.76 243.8 14.5 239 10
2003-05-06 07:29:10 51°13.07 2°50.72 243.8 14.5 240 10
2003-05-06 07:29:14 51°13.06 2°50.7 243.8 14.6 240 10.1
2003-05-06 07:29:20 51°13.05 2°50.67 244 14.6 241 10.1
2003-05-06 07:29:24 51°13.04 2°50.64 244 14.6 240 10.1
2003-05-06 07:29:28 51°13.03 2°50.62 244.3 14.6 241 10.1
2003-05-06 07:29:34 51°13.02 2°50.59 244.4 14.6 240 10.1
2003-05-06 07:29:40 51°13.01 2°50.55 244.4 14.6 241 10.1
2003-05-06 07:29:44 51°13 2°50.53 244.2 14.6 240 10.1
2003-05-06 07:29:50 51°12.99 2°50.5 244.1 14.7 241 10.1
2003-05-06 07:29:54 51°12.98 2°50.47 244.1 14.7 239 10.1
2003-05-06 07:30:00 51°12.97 2°50.44 244.1 14.6 241 10.1
2003-05-06 07:30:04 51°12.96 2°50.42 244.1 14.6 240 10.1
2003-05-06 07:30:08 51°12.95 2°50.4 244.2 14.6 241 10.2
2003-05-06 07:30:14 51°12.94 2°50.36 244.3 14.6 241 10.1
2003-05-06 07:30:20 51°12.93 2°50.33 244.2 14.7 241 10.1
2003-05-06 07:30:24 51°12.92 2°50.31 244.4 14.7 240 10.1
2003-05-06 07:30:30 51°12.91 2°50.27 244.2 14.7 241 10.2
2003-05-06 07:30:34 51°12.9 2°50.25 244.3 14.7 241 10.2
2003-05-06 07:30:40 51°12.89 2°50.22 244.5 14.7 241 10.2
2003-05-06 07:30:44 51°12.88 2°50.19 244.7 14.7 241 10.3
2003-05-06 07:30:50 51°12.87 2°50.16 244.4 14.6 240 10.2
2003-05-06 07:30:54 51°12.86 2°50.14 244.1 14.7 241 10.2
2003-05-06 07:31:00 51°12.85 2°50.1 244.1 14.7 241 10.2
2003-05-06 07:31:04 51°12.84 2°50.08 243.5 14.7 239 10.2
2003-05-06 07:31:10 51°12.83 2°50.05 243.7 14.6 241 10.2
2003-05-06 07:31:14 51°12.82 2°50.02 243.7 14.7 240 10.2
2003-05-06 07:31:20 51°12.81 2°49.99 244.1 14.8 241 10.2
2003-05-06 07:31:24 51°12.8 2°49.97 244.6 14.7 241 10.2
2003-05-06 07:31:30 51°12.79 2°49.93 244.6 14.6 240 10.2
2003-05-06 07:31:34 51°12.78 2°49.91 244.4 14.6 241 10.2
2003-05-06 07:31:40 51°12.77 2°49.88 244.4 14.7 241 10.3
2003-05-06 07:31:44 51°12.76 2°49.85 244.5 14.6 241 10.3
2003-05-06 07:31:50 51°12.75 2°49.82 244.5 14.7 241 10.3
2003-05-06 07:31:54 51°12.74 2°49.8 244.8 14.6 241 10.3
2003-05-06 07:32:00 51°12.73 2°49.76 244.8 14.7 241 10.3
2003-05-06 07:32:04 51°12.72 2°49.74 244.7 14.7 241 10.3
2003-05-06 07:32:10 51°12.71 2°49.71 244.4 14.7 240 10.3
2003-05-06 07:32:14 51°12.7 2°49.68 243.8 14.7 239 10.3
2003-05-06 07:32:20 51°12.69 2°49.65 243.6 14.7 240 10.3
2003-05-06 07:32:24 51°12.68 2°49.63 243.6 14.7 239 10.4
2003-05-06 07:32:30 51°12.67 2°49.59 244.3 14.7 241 10.4
2003-05-06 07:32:34 51°12.66 2°49.57 244.4 14.7 240 10.3
2003-05-06 07:32:40 51°12.65 2°49.54 244.6 14.7 241 10.4
2003-05-06 07:32:44 51°12.64 2°49.51 244.7 14.7 241 10.4
2003-05-06 07:32:50 51°12.63 2°49.48 244.9 14.7 241 10.4
2003-05-06 07:32:54 51°12.62 2°49.46 244.9 14.8 241 10.4
2003-05-06 07:33:00 51°12.61 2°49.42 244.8 14.7 240 10.4
2003-05-06 07:33:04 51°12.6 2°49.4 245.3 14.7 242 10.4
2003-05-06 07:33:10 51°12.59 2°49.37 246.2 14.8 243 10.4
2003-05-06 07:33:14 51°12.58 2°49.34 247.1 14.7 244 10.5
2003-05-06 07:33:20 51°12.57 2°49.31 247.4 14.8 243 10.4
2003-05-06 07:33:24 51°12.57 2°49.28 247.8 14.7 244 10.4
2003-05-06 07:33:30 51°12.55 2°49.25 248.1 14.7 244 10.5
2003-05-06 07:33:34 51°12.55 2°49.23 248.2 14.8 244 10.5
2003-05-06 07:33:40 51°12.54 2°49.19 248.2 14.8 245 10.5
2003-05-06 07:33:44 51°12.53 2°49.17 248 14.8 243 10.5
2003-05-06 07:33:50 51°12.52 2°49.13 247.7 14.7 244 10.5
2003-05-06 07:33:54 51°12.51 2°49.11 247.3 14.7 243 10.5
2003-05-06 07:34:00 51°12.5 2°49.07 247.2 14.7 243 10.6
2003-05-06 07:34:04 51°12.49 2°49.05 247.1 14.8 243 10.5
2003-05-06 07:34:10 51°12.48 2°49.02 247 14.7 243 10.6
2003-05-06 07:34:14 51°12.47 2°48.99 246.7 14.8 242 10.6
2003-05-06 07:34:20 51°12.46 2°48.96 246.8 14.7 244 10.6
2003-05-06 07:34:24 51°12.46 2°48.93 247.5 14.7 243 10.6
2003-05-06 07:34:28 51°12.45 2°48.91 247.8 14.7 244 10.5
2003-05-06 07:34:34 51°12.44 2°48.88 247.9 14.7 244 10.6
2003-05-06 07:34:40 51°12.43 2°48.84 247.2 14.7 244 10.6
2003-05-06 07:34:44 51°12.42 2°48.82 247.1 14.7 243 10.6
2003-05-06 07:34:50 51°12.41 2°48.78 247 14.7 243 10.6
2003-05-06 07:34:54 51°12.4 2°48.76 246.7 14.7 243 10.6
2003-05-06 07:35:00 51°12.39 2°48.73 246.8 14.7 242 10.7
2003-05-06 07:35:04 51°12.38 2°48.7 247.2 14.7 244 10.7
2003-05-06 07:35:10 51°12.37 2°48.67 247.5 14.7 243 10.7
2003-05-06 07:35:14 51°12.36 2°48.64 247.6 14.7 244 10.7
2003-05-06 07:35:20 51°12.35 2°48.61 247.7 14.7 244 10.7
2003-05-06 07:35:24 51°12.35 2°48.59 247.6 14.7 244 10.8
2003-05-06 07:35:30 51°12.33 2°48.55 247.6 14.7 244 10.8
2003-05-06 07:35:34 51°12.33 2°48.53 247.3 14.7 243 10.7
2003-05-06 07:35:40 51°12.32 2°48.49 247.1 14.7 244 10.8
2003-05-06 07:35:44 51°12.31 2°48.47 246.8 14.6 243 10.8
2003-05-06 07:35:50 51°12.3 2°48.44 246.9 14.6 243 10.8
2003-05-06 07:35:54 51°12.29 2°48.41 246.7 14.7 243 10.8
2003-05-06 07:36:00 51°12.28 2°48.38 247.1 14.7 244 10.8
2003-05-06 07:36:04 51°12.27 2°48.35 247.2 14.8 243 10.8
2003-05-06 07:36:10 51°12.26 2°48.32 247.6 14.7 244 10.8
2003-05-06 07:36:14 51°12.25 2°48.3 247.8 14.7 244 10.8
2003-05-06 07:36:20 51°12.24 2°48.26 247.9 14.7 244 10.9
2003-05-06 07:36:24 51°12.24 2°48.24 247.9 14.7 244 10.9
2003-05-06 07:36:30 51°12.22 2°48.2 247.6 14.8 244 10.9
2003-05-06 07:36:34 51°12.22 2°48.18 247.5 14.7 244 10.9
2003-05-06 07:36:40 51°12.21 2°48.14 247.3 14.7 243 10.9
2003-05-06 07:36:44 51°12.2 2°48.12 246.8 14.8 243 10.9
2003-05-06 07:36:50 51°12.19 2°48.09 247 14.7 243 10.9
2003-05-06 07:36:54 51°12.18 2°48.06 247 14.8 244 11
2003-05-06 07:37:00 51°12.17 2°48.03 246.8 14.8 243 11
2003-05-06 07:37:04 51°12.16 2°48 246.8 14.7 243 11
2003-05-06 07:37:10 51°12.15 2°47.97 246.9 14.8 244 11
2003-05-06 07:37:14 51°12.14 2°47.95 247.1 14.7 243 11
2003-05-06 07:37:20 51°12.13 2°47.91 247.2 14.7 244 11
2003-05-06 07:37:24 51°12.13 2°47.89 247.3 14.8 243 11
2003-05-06 07:37:30 51°12.12 2°47.85 247.5 14.6 244 11
2003-05-06 07:37:34 51°12.11 2°47.83 247.5 14.7 243 11
2003-05-06 07:37:40 51°12.1 2°47.79 247.8 14.7 243 11
2003-05-06 07:37:44 51°12.09 2°47.77 247.4 14.7 243 11
2003-05-06 07:37:50 51°12.08 2°47.74 247.1 14.7 243 11
2003-05-06 07:37:54 51°12.07 2°47.71 246.8 14.8 243 11
2003-05-06 07:38:00 51°12.06 2°47.68 246.7 14.7 243 11
2003-05-06 07:38:04 51°12.05 2°47.66 246.5 14.7 243 11
2003-05-06 07:38:10 51°12.04 2°47.62 246.5 14.7 243 11
2003-05-06 07:38:14 51°12.03 2°47.6 247 14.7 243 11
2003-05-06 07:38:20 51°12.02 2°47.56 247.5 14.7 244 11
2003-05-06 07:38:24 51°12.02 2°47.54 247.9 14.7 244 11
2003-05-06 07:38:30 51°12.01 2°47.5 247.9 14.8 244 11
2003-05-06 07:38:34 51°12 2°47.48 247.8 14.7 244 11
2003-05-06 07:38:40 51°11.99 2°47.45 247.5 14.8 244 11.1
2003-05-06 07:38:44 51°11.98 2°47.42 247.3 14.7 244 11
2003-05-06 07:38:50 51°11.97 2°47.39 246.6 14.7 242 11.1
2003-05-06 07:38:54 51°11.96 2°47.36 246.8 14.7 245 11
2003-05-06 07:39:00 51°11.95 2°47.33 247 14.8 243 11.1
2003-05-06 07:39:04 51°11.94 2°47.31 247.9 14.8 245 11
2003-05-06 07:39:10 51°11.93 2°47.27 247.9 14.8 244 11
2003-05-06 07:39:14 51°11.93 2°47.25 247.6 14.8 244 11
2003-05-06 07:39:20 51°11.92 2°47.21 247.8 14.7 244 11
2003-05-06 07:39:24 51°11.91 2°47.19 247.7 14.7 244 11
2003-05-06 07:39:30 51°11.9 2°47.15 247.7 14.7 244 11
2003-05-06 07:39:34 51°11.89 2°47.13 247.4 14.7 244 11
2003-05-06 07:39:40 51°11.88 2°47.1 247.5 14.7 244 11
2003-05-06 07:39:44 51°11.87 2°47.07 247.5 14.7 243 10.9
2003-05-06 07:39:50 51°11.86 2°47.04 247.5 14.7 244 11
2003-05-06 07:39:54 51°11.86 2°47.01 247.5 14.8 244 11
2003-05-06 07:40:00 51°11.85 2°46.98 247.3 14.8 244 11
2003-05-06 07:40:04 51°11.84 2°46.96 247.1 14.7 244 11.2
2003-05-06 07:40:10 51°11.83 2°46.92 247 14.8 243 11
2003-05-06 07:40:14 51°11.82 2°46.9 247 14.8 244 11
2003-05-06 07:40:20 51°11.81 2°46.86 246.8 14.8 243 11.1
2003-05-06 07:40:24 51°11.8 2°46.84 247 14.8 244 11.1
2003-05-06 07:40:30 51°11.79 2°46.8 247.2 14.7 244 11
2003-05-06 07:40:34 51°11.78 2°46.78 247.1 14.7 244 11
2003-05-06 07:40:40 51°11.77 2°46.75 247.3 14.8 244 11
2003-05-06 07:40:44 51°11.77 2°46.72 247.5 14.8 244 11.1
2003-05-06 07:40:50 51°11.75 2°46.69 247.5 14.8 244 11.1
2003-05-06 07:40:54 51°11.75 2°46.66 247.5 14.7 244 11.1
2003-05-06 07:41:00 51°11.74 2°46.63 247.4 14.8 244 11.1
2003-05-06 07:41:04 51°11.73 2°46.61 247.3 14.8 244 11
2003-05-06 07:41:10 51°11.72 2°46.57 247.3 14.8 244 11.1
2003-05-06 07:41:14 51°11.71 2°46.55 247.3 14.8 243 11.1
2003-05-06 07:41:20 51°11.7 2°46.51 247 14.8 244 11.1
2003-05-06 07:41:24 51°11.69 2°46.49 246.7 14.8 243 11.1
2003-05-06 07:41:30 51°11.68 2°46.45 246.6 14.8 244 11.1
2003-05-06 07:41:34 51°11.68 2°46.43 246.8 14.8 243 11.1
2003-05-06 07:41:40 51°11.66 2°46.39 247.1 14.8 244 11
2003-05-06 07:41:44 51°11.66 2°46.37 247.5 14.8 244 11
2003-05-06 07:41:50 51°11.65 2°46.34 248.2 14.8 245 11.1
2003-05-06 07:41:54 51°11.64 2°46.31 248.2 14.8 244 11.1
2003-05-06 07:42:00 51°11.63 2°46.28 248 14.8 245 11
2003-05-06 07:42:04 51°11.62 2°46.25 247.9 14.8 244 11.1
2003-05-06 07:42:10 51°11.61 2°46.22 247.7 14.8 244 11
2003-05-06 07:42:14 51°11.6 2°46.19 247.3 14.8 244 11
2003-05-06 07:42:20 51°11.59 2°46.16 247.1 14.8 244 11
2003-05-06 07:42:24 51°11.59 2°46.14 247 14.8 244 11
2003-05-06 07:42:30 51°11.57 2°46.1 246.8 14.8 244 11
2003-05-06 07:42:34 51°11.57 2°46.08 247 14.7 244 10.9
2003-05-06 07:42:40 51°11.56 2°46.04 247.2 14.8 244 10.9
2003-05-06 07:42:44 51°11.55 2°46.02 248.2 14.9 245 10.9
2003-05-06 07:42:50 51°11.54 2°45.98 248.5 14.7 245 10.9
2003-05-06 07:42:54 51°11.53 2°45.96 248.3 14.7 245 10.8
2003-05-06 07:43:00 51°11.52 2°45.92 248.1 14.8 245 10.8
2003-05-06 07:43:04 51°11.51 2°45.9 247.5 14.7 244 10.8
2003-05-06 07:43:10 51°11.5 2°45.87 247.5 14.7 245 10.8
2003-05-06 07:43:14 51°11.5 2°45.84 247.3 14.8 244 10.8
2003-05-06 07:43:20 51°11.49 2°45.81 247.4 14.8 245 10.8
2003-05-06 07:43:24 51°11.48 2°45.78 247.4 14.8 244 10.8
2003-05-06 07:43:30 51°11.47 2°45.75 247.8 14.8 245 10.8
2003-05-06 07:43:34 51°11.46 2°45.73 248.2 14.8 245 10.8
2003-05-06 07:43:40 51°11.45 2°45.69 248 14.8 245 10.8
2003-05-06 07:43:44 51°11.44 2°45.67 247.8 14.8 244 10.8
2003-05-06 07:43:50 51°11.43 2°45.63 247.7 14.7 245 10.7
2003-05-06 07:43:54 51°11.43 2°45.61 247.2 14.8 243 10.7
2003-05-06 07:44:00 51°11.42 2°45.57 247.1 14.8 244 10.7
2003-05-06 07:44:04 51°11.41 2°45.55 246.8 14.7 244 10.7
2003-05-06 07:44:10 51°11.4 2°45.51 246.5 14.8 243 10.6
2003-05-06 07:44:14 51°11.39 2°45.49 246.7 14.8 244 10.6
2003-05-06 07:44:20 51°11.38 2°45.46 247.2 14.8 245 10.6
2003-05-06 07:44:24 51°11.37 2°45.43 247.5 14.8 244 10.6
2003-05-06 07:44:30 51°11.36 2°45.4 248.2 14.8 246 10.6
2003-05-06 07:44:34 51°11.35 2°45.37 248.2 14.7 245 10.6
2003-05-06 07:44:40 51°11.34 2°45.34 247.7 14.8 244 10.5
2003-05-06 07:44:44 51°11.34 2°45.31 247.6 14.9 244 10.5
2003-05-06 07:44:50 51°11.33 2°45.28 247.6 14.7 244 10.5
2003-05-06 07:44:54 51°11.32 2°45.26 247.5 14.8 244 10.5
2003-05-06 07:45:00 51°11.31 2°45.22 247.5 14.8 245 10.5
2003-05-06 07:45:04 51°11.3 2°45.2 247.5 14.8 244 10.5
2003-05-06 07:45:10 51°11.29 2°45.16 247.2 14.8 244 10.4
2003-05-06 07:45:14 51°11.28 2°45.14 247.3 14.8 244 10.3
2003-05-06 07:45:20 51°11.27 2°45.1 247.3 14.8 244 10.4
2003-05-06 07:45:24 51°11.27 2°45.08 247.1 14.8 244 10.4
2003-05-06 07:45:28 51°11.26 2°45.06 247.2 14.8 244 10.4
2003-05-06 07:45:34 51°11.25 2°45.02 246.9 14.8 244 10.4
2003-05-06 07:45:40 51°11.24 2°44.99 246.7 14.8 244 10.3
2003-05-06 07:45:44 51°11.23 2°44.96 246.9 14.8 244 10.4
2003-05-06 07:45:50 51°11.22 2°44.93 247.1 14.8 244 10.3
2003-05-06 07:45:54 51°11.21 2°44.9 247 14.7 244 10.2
2003-05-06 07:46:00 51°11.2 2°44.87 247.2 14.8 244 10.3
2003-05-06 07:46:04 51°11.19 2°44.84 247.3 14.7 245 10.2
2003-05-06 07:46:10 51°11.18 2°44.81 247.3 14.8 244 10.2
2003-05-06 07:46:14 51°11.18 2°44.79 247.3 14.8 245 10.2
2003-05-06 07:46:20 51°11.16 2°44.75 246.9 14.8 243 10.2
2003-05-06 07:46:24 51°11.16 2°44.73 246.7 14.8 244 10.2
2003-05-06 07:46:30 51°11.15 2°44.69 246.7 14.8 245 10.2
2003-05-06 07:46:34 51°11.14 2°44.67 246.7 14.8 243 10.2
2003-05-06 07:46:40 51°11.13 2°44.63 246.7 14.7 244 10.1
2003-05-06 07:46:44 51°11.12 2°44.61 246.5 14.8 243 10
2003-05-06 07:46:50 51°11.11 2°44.58 246.7 14.7 244 10
2003-05-06 07:46:54 51°11.1 2°44.55 246.5 14.7 243 10
2003-05-06 07:47:00 51°11.09 2°44.52 246.7 14.8 244 10
2003-05-06 07:47:04 51°11.08 2°44.49 247.4 14.8 244 10
2003-05-06 07:47:10 51°11.07 2°44.46 247.8 14.7 245 10
2003-05-06 07:47:14 51°11.07 2°44.43 248 14.7 245 10
2003-05-06 07:47:20 51°11.06 2°44.4 248 14.8 245 9.9
2003-05-06 07:47:24 51°11.05 2°44.38 248.2 14.8 246 9.9
2003-05-06 07:47:30 51°11.04 2°44.34 248.3 14.8 245 9.9
2003-05-06 07:47:34 51°11.03 2°44.32 248.2 14.8 245 9.9
2003-05-06 07:47:40 51°11.02 2°44.28 248.2 14.7 245 9.9
2003-05-06 07:47:44 51°11.02 2°44.26 248.2 14.8 245 9.8
2003-05-06 07:47:50 51°11.01 2°44.22 248.2 14.7 245 9.8
2003-05-06 07:47:54 51°11 2°44.2 247.5 14.8 244 9.7
2003-05-06 07:48:00 51°10.99 2°44.16 247.4 14.7 245 9.7
2003-05-06 07:48:04 51°10.98 2°44.14 247.5 14.7 244 9.7
2003-05-06 07:48:08 51°10.97 2°44.12 247.4 14.7 244 9.7
2003-05-06 07:48:14 51°10.96 2°44.08 247 14.8 244 9.7
2003-05-06 07:48:20 51°10.95 2°44.05 246.8 14.7 243 9.7
2003-05-06 07:48:24 51°10.94 2°44.02 246.6 14.7 244 9.6
2003-05-06 07:48:30 51°10.93 2°43.99 246.7 14.7 244 9.6
2003-05-06 07:48:34 51°10.93 2°43.96 246.7 14.7 244 9.6
2003-05-06 07:48:40 51°10.92 2°43.93 247.1 14.7 245 9.6
2003-05-06 07:48:44 51°10.91 2°43.91 247.5 14.7 245 9.5
2003-05-06 07:48:50 51°10.9 2°43.87 247.6 14.8 245 9.5
2003-05-06 07:48:54 51°10.89 2°43.85 247.6 14.7 244 9.5
2003-05-06 07:49:00 51°10.88 2°43.81 247.6 14.7 245 9.5
2003-05-06 07:49:04 51°10.87 2°43.79 247.4 14.7 244 9.4
2003-05-06 07:49:10 51°10.86 2°43.75 247.3 14.7 245 9.5
2003-05-06 07:49:14 51°10.86 2°43.73 247.2 14.7 244 9.5
2003-05-06 07:49:20 51°10.85 2°43.7 246.7 14.7 244 9.5
2003-05-06 07:49:24 51°10.84 2°43.67 246.6 14.7 244 9.4
2003-05-06 07:49:28 51°10.83 2°43.65 246.6 14.7 243 9.4
2003-05-06 07:49:34 51°10.82 2°43.61 246.7 14.7 244 9.4
2003-05-06 07:49:40 51°10.81 2°43.58 247.2 14.7 245 9.4
2003-05-06 07:49:44 51°10.8 2°43.56 247.2 14.7 244 9.4
2003-05-06 07:49:50 51°10.79 2°43.52 247.8 14.6 246 9.3
2003-05-06 07:49:54 51°10.78 2°43.5 247.6 14.7 244 9.3
2003-05-06 07:50:00 51°10.77 2°43.46 247.9 14.6 246 9.3
2003-05-06 07:50:04 51°10.77 2°43.44 248.2 14.7 245 9.2
2003-05-06 07:50:10 51°10.76 2°43.4 248.3 14.7 245 9.2
2003-05-06 07:50:14 51°10.75 2°43.38 248.6 14.7 246 9.2
2003-05-06 07:50:20 51°10.74 2°43.34 248.6 14.6 247 9.1
2003-05-06 07:50:24 51°10.73 2°43.32 248.3 14.6 244 9.1
2003-05-06 07:50:30 51°10.72 2°43.29 247.8 14.6 246 9.1
2003-05-06 07:50:34 51°10.72 2°43.26 247.3 14.6 244 9.1
2003-05-06 07:50:40 51°10.71 2°43.23 246.8 14.6 243 9
2003-05-06 07:50:44 51°10.7 2°43.21 246.7 14.6 244 9
2003-05-06 07:50:50 51°10.69 2°43.17 246.7 14.6 244 9.1
2003-05-06 07:50:54 51°10.68 2°43.15 247 14.6 244 9
2003-05-06 07:51:00 51°10.67 2°43.11 247.6 14.6 245 9
2003-05-06 07:51:04 51°10.66 2°43.09 247.9 14.6 245 9
2003-05-06 07:51:10 51°10.65 2°43.05 247.7 14.6 245 9
2003-05-06 07:51:14 51°10.65 2°43.03 247.5 14.6 244 8.9
2003-05-06 07:51:20 51°10.64 2°43 247.2 14.6 244 8.9
2003-05-06 07:51:24 51°10.63 2°42.97 247.1 14.6 245 8.9
2003-05-06 07:51:30 51°10.62 2°42.94 247.1 14.6 245 8.9
2003-05-06 07:51:34 51°10.61 2°42.91 247.6 14.6 245 8.8
2003-05-06 07:51:40 51°10.6 2°42.88 248.7 14.5 246 8.8
2003-05-06 07:51:44 51°10.6 2°42.86 249.7 14.6 248 8.8
2003-05-06 07:51:50 51°10.59 2°42.82 250.6 14.6 248 8.8
2003-05-06 07:51:54 51°10.58 2°42.8 251.5 14.6 249 8.8
2003-05-06 07:52:00 51°10.57 2°42.76 251.5 14.5 249 8.8
2003-05-06 07:52:04 51°10.57 2°42.74 251.1 14.5 247 8.7
2003-05-06 07:52:10 51°10.56 2°42.7 250.4 14.5 247 8.7
2003-05-06 07:52:14 51°10.55 2°42.68 249.6 14.6 246 8.7
2003-05-06 07:52:20 51°10.54 2°42.64 249.4 14.6 246 8.7
2003-05-06 07:52:24 51°10.53 2°42.62 248.9 14.5 246 8.7
2003-05-06 07:52:28 51°10.53 2°42.6 248.6 14.6 246 8.7
2003-05-06 07:52:34 51°10.52 2°42.56 248.6 14.6 245 8.7
2003-05-06 07:52:40 51°10.51 2°42.53 248.9 14.6 246 8.6
2003-05-06 07:52:44 51°10.5 2°42.5 249.5 14.6 247 8.6
2003-05-06 07:52:50 51°10.49 2°42.47 250.2 14.6 247 8.7
2003-05-06 07:52:54 51°10.48 2°42.44 251.1 14.5 250 8.6
2003-05-06 07:53:00 51°10.48 2°42.41 251.1 14.5 248 8.6
2003-05-06 07:53:04 51°10.47 2°42.38 251.1 14.5 248 8.6
2003-05-06 07:53:08 51°10.46 2°42.36 251 14.5 248 8.6
2003-05-06 07:53:14 51°10.45 2°42.32 250.7 14.5 247 8.6
2003-05-06 07:53:20 51°10.45 2°42.29 250.3 14.5 247 8.6
2003-05-06 07:53:24 51°10.44 2°42.26 249.7 14.5 246 8.7
2003-05-06 07:53:30 51°10.43 2°42.23 249.6 14.5 247 8.6
2003-05-06 07:53:34 51°10.42 2°42.21 248.9 14.5 246 8.6
2003-05-06 07:53:40 51°10.41 2°42.17 248.2 14.5 245 8.6
2003-05-06 07:53:44 51°10.41 2°42.15 247.8 14.6 245 8.6
2003-05-06 07:53:50 51°10.4 2°42.11 247.6 14.5 245 8.7
2003-05-06 07:53:54 51°10.39 2°42.09 247.7 14.5 245 8.6
2003-05-06 07:54:00 51°10.38 2°42.05 248.9 14.5 246 8.6
2003-05-06 07:54:04 51°10.37 2°42.03 249.6 14.5 247 8.6
2003-05-06 07:54:10 51°10.36 2°41.99 250.7 14.5 248 8.5
2003-05-06 07:54:14 51°10.36 2°41.97 251.6 14.5 248 8.6
2003-05-06 07:54:20 51°10.35 2°41.94 251.8 14.5 248 8.7
2003-05-06 07:54:24 51°10.34 2°41.91 252.3 14.5 250 8.7
2003-05-06 07:54:30 51°10.33 2°41.88 252.1 14.5 247 8.7
2003-05-06 07:54:34 51°10.33 2°41.85 251.8 14.6 250 8.6
2003-05-06 07:54:40 51°10.32 2°41.82 251.1 14.6 247 8.7
2003-05-06 07:54:44 51°10.31 2°41.79 249.8 14.5 247 8.6
2003-05-06 07:54:50 51°10.3 2°41.76 248.6 14.5 245 8.6
2003-05-06 07:54:54 51°10.3 2°41.73 247.6 14.5 245 8.6
2003-05-06 07:55:00 51°10.29 2°41.7 246.7 14.5 244 8.6
2003-05-06 07:55:04 51°10.28 2°41.68 246.6 14.5 244 8.6
2003-05-06 07:55:10 51°10.27 2°41.64 246.5 14.5 245 8.6
2003-05-06 07:55:14 51°10.26 2°41.62 247.4 14.5 244 8.7
2003-05-06 07:55:20 51°10.25 2°41.58 248.2 14.5 245 8.7
2003-05-06 07:55:24 51°10.24 2°41.56 249.3 14.5 247 8.6
2003-05-06 07:55:30 51°10.24 2°41.52 250.1 14.6 246 8.7
2003-05-06 07:55:34 51°10.23 2°41.5 251.1 14.6 249 8.6
2003-05-06 07:55:40 51°10.22 2°41.46 251.3 14.5 247 8.7
2003-05-06 07:55:44 51°10.21 2°41.44 251.1 14.5 249 8.7
2003-05-06 07:55:50 51°10.2 2°41.41 250.4 14.6 247 8.6
2003-05-06 07:55:54 51°10.2 2°41.38 249.9 14.6 247 8.6
2003-05-06 07:56:00 51°10.19 2°41.35 248.5 14.6 245 8.7
2003-05-06 07:56:04 51°10.18 2°41.32 247.9 14.6 245 8.6
2003-05-06 07:56:10 51°10.17 2°41.29 247.4 14.6 245 8.7
2003-05-06 07:56:14 51°10.16 2°41.26 246.9 14.6 244 8.6
2003-05-06 07:56:20 51°10.15 2°41.23 247.1 14.6 245 8.6
2003-05-06 07:56:24 51°10.15 2°41.21 247.3 14.6 245 8.6
2003-05-06 07:56:30 51°10.14 2°41.17 248 14.6 246 8.7
2003-05-06 07:56:34 51°10.13 2°41.15 249 14.6 246 8.7
2003-05-06 07:56:40 51°10.12 2°41.11 249.8 14.6 248 8.7
2003-05-06 07:56:44 51°10.12 2°41.09 250.9 14.6 248 8.7
2003-05-06 07:56:50 51°10.11 2°41.05 251.4 14.6 248 8.7
2003-05-06 07:56:54 51°10.1 2°41.03 251.4 14.6 249 8.7
2003-05-06 07:57:00 51°10.09 2°40.99 251.4 14.7 248 8.8
2003-05-06 07:57:04 51°10.09 2°40.97 250.7 14.7 248 8.8
2003-05-06 07:57:10 51°10.08 2°40.93 249.5 14.7 247 8.8
2003-05-06 07:57:14 51°10.07 2°40.91 248.4 14.6 246 8.8
2003-05-06 07:57:20 51°10.06 2°40.87 247.5 14.6 244 8.8
2003-05-06 07:57:24 51°10.05 2°40.85 246.6 14.6 244 8.8
2003-05-06 07:57:30 51°10.04 2°40.82 246.2 14.7 244 8.7
2003-05-06 07:57:34 51°10.03 2°40.79 246.2 14.6 244 8.7
2003-05-06 07:57:40 51°10.02 2°40.76 246.5 14.7 245 8.7
2003-05-06 07:57:44 51°10.02 2°40.73 248.2 14.7 246 8.8
2003-05-06 07:57:50 51°10.01 2°40.7 249.2 14.6 246 8.8
2003-05-06 07:57:54 51°10 2°40.67 250.3 14.7 248 8.8
2003-05-06 07:58:00 51°9.99 2°40.64 250.9 14.6 248 8.8
2003-05-06 07:58:04 51°9.99 2°40.61 251.3 14.6 249 8.8
2003-05-06 07:58:10 51°9.98 2°40.58 251.4 14.7 248 8.8
2003-05-06 07:58:14 51°9.97 2°40.55 251.1 14.7 248 8.8
2003-05-06 07:58:20 51°9.96 2°40.52 250.1 14.6 247 8.8
2003-05-06 07:58:24 51°9.96 2°40.49 249.2 14.6 247 8.8
2003-05-06 07:58:30 51°9.94 2°40.46 248.1 14.7 245 8.8
2003-05-06 07:58:34 51°9.94 2°40.44 248.1 14.7 247 8.8
2003-05-06 07:58:40 51°9.93 2°40.4 247.6 14.7 245 8.8
2003-05-06 07:58:44 51°9.92 2°40.38 247.7 14.6 246 8.8
2003-05-06 07:58:50 51°9.91 2°40.34 248.2 14.6 246 8.9
2003-05-06 07:58:54 51°9.91 2°40.32 249.3 14.6 248 8.8
2003-05-06 07:59:00 51°9.9 2°40.28 250.1 14.6 247 8.8
2003-05-06 07:59:04 51°9.89 2°40.26 250.7 14.6 249 8.8
2003-05-06 07:59:10 51°9.88 2°40.22 251.2 14.7 249 8.9
2003-05-06 07:59:14 51°9.88 2°40.2 251.8 14.8 249 8.9
2003-05-06 07:59:20 51°9.87 2°40.16 251.6 14.6 248 8.8
2003-05-06 07:59:24 51°9.86 2°40.14 250.4 14.7 248 8.9
2003-05-06 07:59:30 51°9.85 2°40.1 249.4 14.8 246 8.9
2003-05-06 07:59:34 51°9.84 2°40.08 248.3 14.7 246 8.8
2003-05-06 07:59:40 51°9.83 2°40.04 247.6 14.7 246 8.8
2003-05-06 07:59:44 51°9.83 2°40.02 247.2 14.7 245 8.8
2003-05-06 07:59:50 51°9.82 2°39.98 247.5 14.7 246 8.8
2003-05-06 07:59:54 51°9.81 2°39.96 248.2 14.6 246 8.8
2003-05-06 08:00:00 51°9.8 2°39.92 248.9 14.7 247 8.9
2003-05-06 08:00:04 51°9.79 2°39.9 249.7 14.7 248 8.8
2003-05-06 08:00:10 51°9.79 2°39.86 250.4 14.7 249 8.9
2003-05-06 08:00:14 51°9.78 2°39.84 250.6 14.7 248 8.8
2003-05-06 08:00:20 51°9.77 2°39.8 251.1 14.7 249 8.9
2003-05-06 08:00:24 51°9.76 2°39.78 251.2 14.7 249 8.9
2003-05-06 08:00:30 51°9.76 2°39.74 250.6 14.7 248 8.9
2003-05-06 08:00:34 51°9.75 2°39.72 249.6 14.7 247 8.9
2003-05-06 08:00:40 51°9.74 2°39.68 249.3 14.7 246 8.9
2003-05-06 08:00:44 51°9.73 2°39.66 248.2 14.7 246 8.9
2003-05-06 08:00:50 51°9.72 2°39.63 247.5 14.7 245 8.9
2003-05-06 08:00:54 51°9.72 2°39.6 247.7 14.7 246 8.8
2003-05-06 08:01:00 51°9.71 2°39.57 247.5 14.7 245 8.9
2003-05-06 08:01:04 51°9.7 2°39.54 247.9 14.7 246 8.9
2003-05-06 08:01:10 51°9.69 2°39.51 248.6 14.7 246 8.9
2003-05-06 08:01:14 51°9.68 2°39.48 249.6 14.7 248 8.8
2003-05-06 08:01:20 51°9.67 2°39.45 250.2 14.7 248 8.9
2003-05-06 08:01:24 51°9.67 2°39.42 250.9 14.7 249 8.9
2003-05-06 08:01:30 51°9.66 2°39.39 251.4 14.7 249 8.9
2003-05-06 08:01:34 51°9.65 2°39.36 251.4 14.7 248 8.9
2003-05-06 08:01:40 51°9.64 2°39.33 250.5 14.7 248 9
2003-05-06 08:01:44 51°9.64 2°39.3 249.7 14.7 246 8.9
2003-05-06 08:01:50 51°9.63 2°39.27 248.4 14.7 246 9
2003-05-06 08:01:54 51°9.62 2°39.24 247.5 14.7 245 9
2003-05-06 08:02:00 51°9.61 2°39.21 247 14.7 244 9
2003-05-06 08:02:04 51°9.6 2°39.19 246.3 14.7 244 9
2003-05-06 08:02:10 51°9.59 2°39.15 246 14.6 243 9
2003-05-06 08:02:14 51°9.59 2°39.13 245.8 14.8 245 9
2003-05-06 08:02:20 51°9.57 2°39.09 246.6 14.7 245 9
2003-05-06 08:02:24 51°9.57 2°39.07 247.5 14.7 246 9
2003-05-06 08:02:30 51°9.56 2°39.03 248.6 14.7 247 9
2003-05-06 08:02:34 51°9.55 2°39.01 249.6 14.7 247 9
2003-05-06 08:02:40 51°9.54 2°38.97 250.2 14.7 248 9.1
2003-05-06 08:02:44 51°9.54 2°38.95 250.7 14.7 249 9.1
2003-05-06 08:02:50 51°9.53 2°38.91 251.1 14.7 249 9.1
2003-05-06 08:02:54 51°9.52 2°38.89 251.1 14.7 249 9.1
2003-05-06 08:03:00 51°9.51 2°38.85 251.1 14.7 249 9.2
2003-05-06 08:03:04 51°9.51 2°38.83 250.7 14.7 248 9.1
2003-05-06 08:03:10 51°9.5 2°38.79 250.1 14.7 247 9.1
2003-05-06 08:03:14 51°9.49 2°38.77 249.7 14.7 247 9.2
2003-05-06 08:03:20 51°9.48 2°38.73 248.9 14.7 246 9.2
2003-05-06 08:03:24 51°9.48 2°38.71 248 14.7 246 9.1
2003-05-06 08:03:30 51°9.47 2°38.67 247.8 14.7 246 9.1
2003-05-06 08:03:34 51°9.46 2°38.65 247.5 14.7 245 9.1
2003-05-06 08:03:40 51°9.45 2°38.61 247.4 14.7 245 9.1
2003-05-06 08:03:44 51°9.44 2°38.59 248.2 14.7 246 9.2
2003-05-06 08:03:50 51°9.43 2°38.56 248.6 14.7 247 9.1
2003-05-06 08:03:54 51°9.43 2°38.53 249.6 14.7 247 9.1
2003-05-06 08:04:00 51°9.42 2°38.5 249.9 14.7 247 9.2
2003-05-06 08:04:04 51°9.41 2°38.47 250.5 14.7 249 9.1
2003-05-06 08:04:10 51°9.4 2°38.44 250.8 14.7 249 9.1
2003-05-06 08:04:14 51°9.4 2°38.41 251 14.6 248 9.1
2003-05-06 08:04:20 51°9.39 2°38.38 250.7 14.6 248 9.1
2003-05-06 08:04:24 51°9.38 2°38.35 250.4 14.6 248 9.2
2003-05-06 08:04:30 51°9.37 2°38.32 249.7 14.6 247 9.2
2003-05-06 08:04:34 51°9.36 2°38.29 249.1 14.7 247 9.2
2003-05-06 08:04:40 51°9.35 2°38.26 248.4 14.7 245 9.2
2003-05-06 08:04:44 51°9.35 2°38.23 247.7 14.7 246 9.2
2003-05-06 08:04:50 51°9.34 2°38.2 247.5 14.7 245 9.1
2003-05-06 08:04:54 51°9.33 2°38.17 247.7 14.6 246 9.1
2003-05-06 08:05:00 51°9.32 2°38.14 247.7 14.6 245 9.2
2003-05-06 08:05:04 51°9.31 2°38.12 248.5 14.7 247 9.1
2003-05-06 08:05:10 51°9.3 2°38.08 248.9 14.7 247 9.2
2003-05-06 08:05:14 51°9.3 2°38.06 249.7 14.6 248 9.1
2003-05-06 08:05:20 51°9.29 2°38.02 250.6 14.6 249 9.1
2003-05-06 08:05:24 51°9.28 2°38 250.9 14.6 248 9
2003-05-06 08:05:30 51°9.28 2°37.96 250.9 14.6 249 9.1
2003-05-06 08:05:34 51°9.27 2°37.94 251 14.6 247 9.1
2003-05-06 08:05:40 51°9.26 2°37.9 250.7 14.6 248 9.1
2003-05-06 08:05:44 51°9.25 2°37.88 250.1 14.6 247 9
2003-05-06 08:05:50 51°9.24 2°37.84 249.4 14.6 247 9
2003-05-06 08:05:54 51°9.24 2°37.82 248.3 14.6 246 9
2003-05-06 08:06:00 51°9.23 2°37.78 247.7 14.6 245 9
2003-05-06 08:06:04 51°9.22 2°37.76 247.5 14.6 245 8.9
2003-05-06 08:06:10 51°9.21 2°37.72 247.5 14.6 245 9
2003-05-06 08:06:14 51°9.2 2°37.7 247.9 14.6 246 9
2003-05-06 08:06:20 51°9.19 2°37.67 248.6 14.6 247 8.9
2003-05-06 08:06:24 51°9.19 2°37.64 249.2 14.5 247 8.9
2003-05-06 08:06:30 51°9.18 2°37.61 249.7 14.6 248 8.9
2003-05-06 08:06:34 51°9.17 2°37.58 250.4 14.5 248 8.9
2003-05-06 08:06:40 51°9.16 2°37.55 251 14.5 249 8.9
2003-05-06 08:06:44 51°9.16 2°37.52 251.2 14.5 249 8.8
2003-05-06 08:06:50 51°9.15 2°37.49 251.2 14.5 248 8.8
2003-05-06 08:06:54 51°9.14 2°37.46 250.9 14.5 249 8.8
2003-05-06 08:07:00 51°9.13 2°37.43 250.5 13.7 249 8.7
2003-05-06 08:07:04 51°9.13 2°37.41 250 13.2 247 8.7
2003-05-06 08:07:10 51°9.12 2°37.38 249.4 13 247 8.7
2003-05-06 08:07:14 51°9.11 2°37.35 248.3 12.8 246 8.8
2003-05-06 08:07:20 51°9.11 2°37.33 247.8 11.9 245 8.8
2003-05-06 08:07:24 51°9.1 2°37.31 247.1 11.2 245 9
2003-05-06 08:07:30 51°9.09 2°37.28 245.8 10.4 243 9
2003-05-06 08:07:34 51°9.09 2°37.27 243.8 10 242 9
2003-05-06 08:07:40 51°9.08 2°37.25 241.1 9.2 240 8.9
2003-05-06 08:07:44 51°9.07 2°37.23 238.3 8.4 237 8.9
2003-05-06 08:07:50 51°9.07 2°37.22 235.8 7.4 236 8.9
2003-05-06 08:07:54 51°9.06 2°37.21 235.2 6.8 237 8.8
2003-05-06 08:08:00 51°9.06 2°37.19 236.3 5.9 238 8.8
2003-05-06 08:08:04 51°9.05 2°37.19 239.9 5.3 240 8.8
2003-05-06 08:08:10 51°9.05 2°37.17 246 4.4 247 8.8
2003-05-06 08:08:14 51°9.05 2°37.17 252.7 3.8 250 8.8
2003-05-06 08:08:20 51°9.05 2°37.16 259.3 2.9 253 8.8
2003-05-06 08:08:24 51°9.05 2°37.16 265.5 2.2 252 8.8
2003-05-06 08:08:30 51°9.05 2°37.15 270.5 1.4 246 8.8
2003-05-06 08:08:34 51°9.05 2°37.15 273.3 0.9 225 8.8
2003-05-06 08:08:40 51°9.05 2°37.15 274.3 0.6 216 8.8
2003-05-06 08:08:44 51°9.04 2°37.15 273.7 0.7 222 8.8
2003-05-06 08:08:50 51°9.04 2°37.15 272.9 1.3 252 8.8
2003-05-06 08:08:54 51°9.04 2°37.14 273 1.9 255 8.7
2003-05-06 08:09:00 51°9.04 2°37.14 275.1 2.8 267 8.8
2003-05-06 08:09:04 51°9.04 2°37.13 279.8 3.3 268 8.8
2003-05-06 08:09:10 51°9.04 2°37.12 286.5 3.8 279 8.7
2003-05-06 08:09:14 51°9.04 2°37.11 294.7 4.2 281 8.8
2003-05-06 08:09:20 51°9.05 2°37.1 303.5 4.5 294 8.8
2003-05-06 08:09:24 51°9.05 2°37.1 312 4.6 297 8.8
2003-05-06 08:09:30 51°9.05 2°37.09 320.6 4.8 310 8.9
2003-05-06 08:09:34 51°9.06 2°37.08 329 4.8 314 8.9
2003-05-06 08:09:40 51°9.06 2°37.07 337.5 5.1 325 9
2003-05-06 08:09:44 51°9.07 2°37.07 345.8 5 331 9
2003-05-06 08:09:50 51°9.08 2°37.06 354.4 5 344 9
2003-05-06 08:09:54 51°9.08 2°37.06 2.9 5.1 350 9.1
2003-05-06 08:10:00 51°9.09 2°37.06 11.6 4.8 1 9.3
2003-05-06 08:10:04 51°9.1 2°37.06 20.3 4.8 9 9.2
2003-05-06 08:10:10 51°9.1 2°37.07 29.2 4.9 21 9.2
2003-05-06 08:10:14 51°9.11 2°37.07 38.1 4.8 29 9.3
2003-05-06 08:10:20 51°9.11 2°37.08 46.9 4.7 42 9.4
2003-05-06 08:10:24 51°9.12 2°37.09 56 4.7 51 9.4
2003-05-06 08:10:30 51°9.12 2°37.1 65 4.8 64 9.4
2003-05-06 08:10:34 51°9.12 2°37.1 73.9 5 70 9.4
2003-05-06 08:10:40 51°9.12 2°37.12 80.4 5.3 79 9.4
2003-05-06 08:10:44 51°9.13 2°37.13 85.4 5.1 84 9.4
2003-05-06 08:10:50 51°9.13 2°37.14 89.7 4.7 90 9.4
2003-05-06 08:10:54 51°9.13 2°37.15 92.9 4.5 92 9.3
2003-05-06 08:11:00 51°9.12 2°37.16 96 4.2 97 9.4
2003-05-06 08:11:04 51°9.12 2°37.17 98.9 4.1 100 9.3
2003-05-06 08:11:10 51°9.12 2°37.18 102 3.9 105 9.3
2003-05-06 08:11:14 51°9.12 2°37.18 104.9 3.7 107 9.3
2003-05-06 08:11:20 51°9.12 2°37.19 107.8 3.6 113 9.2
2003-05-06 08:11:24 51°9.12 2°37.2 110.4 3.3 116 9.2
2003-05-06 08:11:30 51°9.11 2°37.2 112.7 2.7 121 9.2
2003-05-06 08:11:34 51°9.11 2°37.21 113.4 2.3 123 9.2
2003-05-06 08:11:40 51°9.11 2°37.21 112.5 1.6 127 9.2
2003-05-06 08:11:44 51°9.11 2°37.21 110.3 1.2 138 9.1
2003-05-06 08:11:50 51°9.11 2°37.21 107.5 0.7 153 9.1
2003-05-06 08:11:54 51°9.11 2°37.21 104.7 0.7 157 9.2
2003-05-06 08:12:00 51°9.11 2°37.21 102 0.6 155 9.2
2003-05-06 08:12:04 51°9.11 2°37.22 99.5 0.6 151 9.1
2003-05-06 08:12:10 51°9.11 2°37.22 97.2 0.5 156 9.1
2003-05-06 08:12:14 51°9.11 2°37.22 95 0.5 155 9.2
2003-05-06 08:12:20 51°9.11 2°37.22 93 0.5 164 9.1
2003-05-06 08:12:24 51°9.11 2°37.22 91.3 0.5 163 9.1
2003-05-06 08:12:30 51°9.1 2°37.22 89.6 0.4 153 9.1
2003-05-06 08:12:34 51°9.1 2°37.22 87.9 0.4 150 9.1
2003-05-06 08:12:40 51°9.1 2°37.22 86.4 0.4 149 9.1
2003-05-06 08:12:44 51°9.1 2°37.22 85.1 0.4 148 9.1
2003-05-06 08:12:50 51°9.1 2°37.22 84 0.4 154 9.1
2003-05-06 08:12:54 51°9.1 2°37.22 82.9 0.4 154 9.1
2003-05-06 08:13:00 51°9.1 2°37.22 81.9 0.4 152 9.1
2003-05-06 08:13:04 51°9.1 2°37.22 81.1 0.3 155 9.1
2003-05-06 08:13:10 51°9.1 2°37.22 80.2 0.3 144 9.1
2003-05-06 08:13:14 51°9.1 2°37.22 79.4 0.3 140 9.1
2003-05-06 08:13:20 51°9.1 2°37.22 78.5 0.2 142 9
2003-05-06 08:13:24 51°9.1 2°37.22 77.9 0.3 135 9.1
2003-05-06 08:13:30 51°9.1 2°37.22 77.3 0.2 102 9.1
2003-05-06 08:13:34 51°9.1 2°37.22 76.9 0.3 126 9.1
2003-05-06 08:13:40 51°9.1 2°37.22 76.4 0.3 143 9
2003-05-06 08:13:44 51°9.1 2°37.22 76.1 0.2 129 9.1
2003-05-06 08:13:50 51°9.1 2°37.22 75.4 0.2 119 9.1
2003-05-06 08:13:54 51°9.1 2°37.22 75.1 0.3 124 9.1
2003-05-06 08:14:00 51°9.1 2°37.22 74.6 0.2 116 9.1
2003-05-06 08:14:04 51°9.1 2°37.22 74.2 0.3 120 9.1
2003-05-06 08:14:10 51°9.1 2°37.22 74 0.2 99 9.1
2003-05-06 08:14:14 51°9.1 2°37.22 73.8 0.3 135 9
2003-05-06 08:14:20 51°9.1 2°37.23 73.5 0.2 127 9.1
2003-05-06 08:14:24 51°9.1 2°37.23 73.3 0.3 128 9.1
2003-05-06 08:14:30 51°9.1 2°37.23 73 0.2 117 9.1
2003-05-06 08:14:34 51°9.1 2°37.23 72.6 0.2 114 9.1
2003-05-06 08:14:40 51°9.1 2°37.23 72.3 0.2 127 9.1
2003-05-06 08:14:44 51°9.1 2°37.23 72 0.2 117 9
2003-05-06 08:14:50 51°9.1 2°37.23 71.8 0.3 121 9
2003-05-06 08:14:54 51°9.1 2°37.23 71.4 0.2 112 9.1
2003-05-06 08:15:00 51°9.1 2°37.23 71.3 0.2 92 9
2003-05-06 08:15:04 51°9.1 2°37.23 71 0.2 113 9.1
2003-05-06 08:15:10 51°9.1 2°37.23 70.6 0.2 93 9.1
2003-05-06 08:15:14 51°9.1 2°37.23 70.2 0.2 109 9